createdAt,value
2022-11-17T00:00:28.803Z,98450.59
2022-11-17T00:02:55.572Z,98443.78
2022-11-17T00:05:22.537Z,98439.56
2022-11-17T00:07:50.091Z,98439.63
2022-11-17T00:10:17.632Z,98437.69
2022-11-17T00:13:02.855Z,98435.88
2022-11-17T00:15:29.562Z,98441.06
2022-11-17T00:18:15.089Z,98446.84
2022-11-17T00:21:00.229Z,98431.78
2022-11-17T00:23:47.130Z,98430.78
2022-11-17T00:26:25.144Z,98437.09
2022-11-17T00:28:53.580Z,98429.34
2022-11-17T00:31:38.969Z,98431.00
2022-11-17T00:34:06.883Z,98437.72
2022-11-17T00:36:33.662Z,98440.81
2022-11-17T00:39:00.325Z,98421.50
2022-11-17T00:41:27.023Z,98419.63
2022-11-17T00:43:53.632Z,98407.03
2022-11-17T00:46:20.236Z,98424.66
2022-11-17T00:48:46.842Z,98405.25
2022-11-17T00:51:13.504Z,98420.25
2022-11-17T00:53:40.116Z,98408.44
2022-11-17T00:56:06.963Z,98414.56
2022-11-17T00:58:35.521Z,98397.84
2022-11-17T01:01:02.946Z,98396.50
2022-11-17T01:03:29.732Z,98387.31
2022-11-17T01:05:56.352Z,98383.94
2022-11-17T01:08:22.975Z,98395.47
2022-11-17T01:10:49.573Z,98396.25
2022-11-17T01:13:17.861Z,98398.50
2022-11-17T01:15:44.536Z,98391.75
2022-11-17T01:18:11.192Z,98399.41
2022-11-17T01:20:37.990Z,98416.66
2022-11-17T01:23:04.601Z,98405.59
2022-11-17T01:25:31.313Z,98409.97
2022-11-17T01:27:57.983Z,98408.91
2022-11-17T01:30:24.605Z,98406.41
2022-11-17T01:32:51.186Z,98415.06
2022-11-17T01:35:17.943Z,98404.56
2022-11-17T01:37:44.640Z,98395.16
2022-11-17T01:40:13.726Z,98402.88
2022-11-17T01:42:40.350Z,98405.72
2022-11-17T01:45:24.047Z,98410.03
2022-11-17T01:47:57.442Z,98395.16
2022-11-17T01:50:27.195Z,98417.25
2022-11-17T01:52:56.225Z,98413.50
2022-11-17T01:55:24.511Z,98408.38
2022-11-17T01:57:56.771Z,98411.94
2022-11-17T02:00:23.522Z,98385.09
2022-11-17T02:02:50.596Z,98397.09
2022-11-17T02:05:17.125Z,98387.72
2022-11-17T02:07:44.889Z,98410.94
2022-11-17T02:10:11.633Z,98413.50
2022-11-17T02:12:38.461Z,98407.41
2022-11-17T02:15:06.012Z,98410.63
2022-11-17T02:17:36.973Z,98410.91
2022-11-17T02:20:06.592Z,98405.97
2022-11-17T02:22:39.185Z,98418.59
2022-11-17T02:25:34.921Z,98403.88
2022-11-17T02:28:17.313Z,98410.91
2022-11-17T02:31:11.373Z,98407.81
2022-11-17T02:33:55.788Z,98396.63
2022-11-17T02:36:56.750Z,98400.16
2022-11-17T02:39:27.159Z,98396.34
2022-11-17T02:42:02.953Z,98391.56
2022-11-17T02:44:52.913Z,98393.28
2022-11-17T02:47:24.308Z,98401.91
2022-11-17T02:49:55.690Z,98400.25
2022-11-17T02:52:22.769Z,98399.44
2022-11-17T02:54:49.353Z,98377.88
2022-11-17T02:57:37.587Z,98403.97
2022-11-17T03:00:06.501Z,98413.94
2022-11-17T03:03:00.504Z,98406.97
2022-11-17T03:05:50.344Z,98427.72
2022-11-17T03:08:44.871Z,98413.25
2022-11-17T03:11:11.892Z,98410.81
2022-11-17T03:14:03.631Z,98402.22
2022-11-17T03:16:56.457Z,98399.25
2022-11-17T03:19:31.255Z,98414.50
2022-11-17T03:22:05.949Z,98416.91
2022-11-17T03:24:56.611Z,98406.38
2022-11-17T03:27:29.232Z,98412.38
2022-11-17T03:29:59.523Z,98418.56
2022-11-17T03:32:28.762Z,98404.00
2022-11-17T03:35:18.454Z,98418.63
2022-11-17T03:37:52.363Z,98412.78
2022-11-17T03:40:21.924Z,98399.78
2022-11-17T03:42:54.108Z,98387.31
2022-11-17T03:45:26.725Z,98377.88
2022-11-17T03:48:29.994Z,98398.38
2022-11-17T03:50:59.539Z,98411.09
2022-11-17T03:53:26.141Z,98403.53
2022-11-17T03:56:29.792Z,98384.44
2022-11-17T03:59:15.408Z,98386.47
2022-11-17T04:01:42.291Z,98381.41
2022-11-17T04:04:17.725Z,98385.00
2022-11-17T04:06:44.407Z,98366.19
2022-11-17T04:09:11.406Z,98376.19
2022-11-17T04:11:56.750Z,98370.91
2022-11-17T04:14:41.809Z,98369.47
2022-11-17T04:17:08.502Z,98388.94
2022-11-17T04:19:35.095Z,98379.47
2022-11-17T04:22:01.781Z,98379.44
2022-11-17T04:24:28.439Z,98368.38
2022-11-17T04:27:13.288Z,98387.59
2022-11-17T04:29:39.870Z,98373.81
2022-11-17T04:32:06.474Z,98364.31
2022-11-17T04:34:33.133Z,98378.63
2022-11-17T04:37:03.868Z,98382.03
2022-11-17T04:39:34.219Z,98386.53
2022-11-17T04:42:03.985Z,98376.34
2022-11-17T04:44:31.943Z,98374.25
2022-11-17T04:46:58.760Z,98373.78
2022-11-17T04:49:26.226Z,98373.00
2022-11-17T04:51:53.776Z,98355.16
2022-11-17T04:54:24.142Z,98379.88
2022-11-17T04:56:51.528Z,98378.31
2022-11-17T04:59:18.151Z,98373.44
2022-11-17T05:01:45.443Z,98373.31
2022-11-17T05:04:39.888Z,98382.66
2022-11-17T05:07:08.306Z,98380.19
2022-11-17T05:09:35.039Z,98387.09
2022-11-17T05:12:20.227Z,98398.97
2022-11-17T05:14:49.177Z,98388.81
2022-11-17T05:17:16.453Z,98400.69
2022-11-17T05:19:45.009Z,98401.63
2022-11-17T05:22:36.321Z,98404.13
2022-11-17T05:25:04.024Z,98388.84
2022-11-17T05:27:30.833Z,98410.09
2022-11-17T05:29:57.424Z,98405.78
2022-11-17T05:32:24.163Z,98418.63
2022-11-17T05:34:50.964Z,98429.69
2022-11-17T05:37:17.586Z,98437.66
2022-11-17T05:39:44.240Z,98435.84
2022-11-17T05:42:10.939Z,98436.00
2022-11-17T05:44:37.619Z,98434.94
2022-11-17T05:47:04.333Z,98443.50
2022-11-17T05:49:30.941Z,98468.53
2022-11-17T05:52:00.924Z,98464.06
2022-11-17T05:54:27.528Z,98465.00
2022-11-17T07:31:34.579Z,98395.50
2022-11-17T07:34:01.263Z,98371.69
2022-11-17T07:36:28.249Z,98407.94
2022-11-17T07:38:54.971Z,98416.38
2022-11-17T07:41:21.776Z,98403.06
2022-11-17T07:43:48.524Z,98399.53
2022-11-17T07:46:15.419Z,98395.94
2022-11-17T07:48:43.308Z,98415.72
2022-11-17T07:51:10.229Z,98422.97
2022-11-17T07:53:36.996Z,98414.53
2022-11-17T07:56:09.571Z,98427.16
2022-11-17T07:58:37.618Z,98432.53
2022-11-17T08:01:06.162Z,98417.22
2022-11-17T08:03:33.041Z,98430.63
2022-11-17T08:06:06.542Z,98420.44
2022-11-17T08:08:34.212Z,98418.91
2022-11-17T08:11:06.181Z,98429.66
2022-11-17T08:13:33.462Z,98414.41
2022-11-17T08:16:00.526Z,98420.19
2022-11-17T08:18:27.929Z,98425.78
2022-11-17T08:21:11.745Z,98406.72
2022-11-17T08:23:38.884Z,98400.06
2022-11-17T08:26:07.458Z,98398.06
2022-11-17T08:28:34.792Z,98416.16
2022-11-17T08:31:05.681Z,98407.69
2022-11-17T08:33:33.000Z,98393.00
2022-11-17T08:36:01.378Z,98404.03
2022-11-17T08:38:31.466Z,98387.44
2022-11-17T08:40:59.478Z,98393.41
2022-11-17T08:43:26.351Z,98379.25
2022-11-17T08:45:53.117Z,98401.53
2022-11-17T08:48:20.198Z,98394.44
2022-11-17T08:50:47.169Z,98376.28
2022-11-17T08:53:19.313Z,98368.91
2022-11-17T08:55:46.727Z,98364.88
2022-11-17T08:58:13.701Z,98346.81
2022-11-17T09:00:41.213Z,98355.22
2022-11-17T09:03:09.528Z,98357.34
2022-11-17T09:05:41.166Z,98362.69
2022-11-17T09:08:30.185Z,98364.72
2022-11-17T09:10:55.550Z,98361.13
2022-11-17T09:13:22.282Z,98380.66
2022-11-17T09:15:49.000Z,98367.09
2022-11-17T09:18:15.759Z,98368.09
2022-11-17T09:20:45.838Z,98370.50
2022-11-17T09:23:12.949Z,98359.22
2022-11-17T09:25:40.173Z,98347.44
2022-11-17T09:28:07.033Z,98366.28
2022-11-17T09:30:33.767Z,98361.09
2022-11-17T09:33:00.592Z,98344.44
2022-11-17T09:35:27.292Z,98364.97
2022-11-17T09:37:59.133Z,98360.44
2022-11-17T09:40:25.980Z,98346.56
2022-11-17T09:42:52.682Z,98342.34
2022-11-17T09:45:25.621Z,98339.03
2022-11-17T09:48:18.461Z,98347.63
2022-11-17T09:50:45.891Z,98349.06
2022-11-17T09:53:37.198Z,98356.59
2022-11-17T09:56:06.378Z,98353.75
2022-11-17T09:58:41.708Z,98360.81
2022-11-17T13:27:04.129Z,98246.94
2022-11-17T13:29:30.902Z,98231.72
2022-11-17T13:32:21.217Z,98229.78
2022-11-17T13:34:54.098Z,98232.25
2022-11-17T13:37:28.392Z,98243.63
2022-11-17T13:39:56.714Z,98224.06
2022-11-17T13:42:26.273Z,98236.56
2022-11-17T13:44:58.033Z,98240.75
2022-11-17T13:47:40.422Z,98237.53
2022-11-17T13:50:29.583Z,98223.81
2022-11-17T13:52:58.917Z,98231.47
2022-11-17T13:55:27.320Z,98227.91
2022-11-17T13:58:08.432Z,98224.66
2022-11-17T14:00:35.122Z,98212.59
2022-11-17T14:03:04.723Z,98223.72
2022-11-17T14:05:32.811Z,98235.50
2022-11-17T14:08:12.910Z,98257.81
2022-11-17T14:10:40.045Z,98249.31
2022-11-17T14:13:06.692Z,98246.88
2022-11-17T14:15:38.830Z,98239.97
2022-11-17T14:18:31.960Z,98242.59
2022-11-17T14:21:25.633Z,98246.97
2022-11-17T14:24:02.574Z,98245.28
2022-11-17T14:26:29.902Z,98253.75
2022-11-17T14:29:02.250Z,98255.50
2022-11-17T14:31:30.599Z,98238.41
2022-11-17T14:33:57.377Z,98253.78
2022-11-17T14:36:24.259Z,98243.16
2022-11-17T14:38:51.082Z,98221.22
2022-11-17T14:41:19.279Z,98225.53
2022-11-17T14:43:46.459Z,98238.97
2022-11-17T14:46:19.638Z,98228.06
2022-11-17T14:48:46.468Z,98212.75
2022-11-17T14:51:15.961Z,98239.84
2022-11-17T14:53:44.182Z,98245.94
2022-11-17T14:56:11.067Z,98233.97
2022-11-17T14:58:37.712Z,98260.53
2022-11-17T15:01:38.667Z,98250.91
2022-11-17T15:04:21.118Z,98246.00
2022-11-17T15:06:53.288Z,98248.56
2022-11-17T15:09:20.670Z,98248.38
2022-11-17T15:11:48.338Z,98255.41
2022-11-17T15:14:15.391Z,98261.44
2022-11-17T15:16:42.279Z,98261.47
2022-11-17T15:19:08.919Z,98247.81
2022-11-17T15:21:35.540Z,98253.91
2022-11-17T15:24:03.463Z,98241.03
2022-11-17T15:26:30.295Z,98269.22
2022-11-17T15:29:01.218Z,98233.41
2022-11-17T15:31:27.971Z,98251.31
2022-11-17T15:33:54.612Z,98255.69
2022-11-17T15:36:22.977Z,98266.78
2022-11-17T15:38:49.979Z,98241.94
2022-11-17T15:41:16.947Z,98234.22
2022-11-17T15:43:44.680Z,98268.38
2022-11-17T15:46:13.444Z,98236.94
2022-11-17T15:48:44.609Z,98246.97
2022-11-17T15:51:13.886Z,98274.44
2022-11-17T15:53:41.152Z,98257.34
2022-11-17T15:56:11.544Z,98261.56
2022-11-17T15:58:38.972Z,98258.16
2022-11-17T16:01:26.184Z,98262.25
2022-11-17T16:03:57.519Z,98253.75
2022-11-17T16:06:24.304Z,98251.22
2022-11-17T16:08:51.049Z,98249.47
2022-11-17T16:11:17.725Z,98247.84
2022-11-17T16:13:44.343Z,98248.84
2022-11-17T16:16:13.411Z,98254.56
2022-11-17T16:18:40.300Z,98263.22
2022-11-17T19:30:09.311Z,98195.00
2022-11-17T19:32:36.080Z,98191.84
2022-11-17T19:35:13.575Z,98188.50
2022-11-17T19:37:41.458Z,98196.19
2022-11-17T19:40:08.906Z,98188.50
2022-11-17T19:42:35.696Z,98186.59
2022-11-17T19:45:02.381Z,98180.78
2022-11-17T19:47:29.054Z,98185.00
2022-11-17T19:49:55.872Z,98183.28
2022-11-17T19:52:22.609Z,98184.84
2022-11-17T19:54:49.430Z,98175.41
2022-11-17T19:57:16.315Z,98188.38
2022-11-17T19:59:42.993Z,98182.34
2022-11-17T20:02:13.292Z,98199.47
2022-11-17T20:04:40.111Z,98168.66
2022-11-17T20:07:10.812Z,98165.31
2022-11-17T20:09:37.612Z,98169.69
2022-11-17T20:12:05.568Z,98156.19
2022-11-17T20:14:32.702Z,98147.63
2022-11-17T20:16:59.688Z,98163.44
2022-11-17T20:19:27.258Z,98156.94
2022-11-17T20:21:54.728Z,98158.59
2022-11-17T20:24:21.454Z,98154.06
2022-11-17T20:26:49.131Z,98162.78
2022-11-17T20:29:16.147Z,98144.91
2022-11-17T20:31:43.262Z,98158.50
2022-11-17T20:34:12.159Z,98139.81
2022-11-17T20:36:39.011Z,98149.94
2022-11-17T20:39:06.887Z,98158.50
2022-11-17T20:41:34.002Z,98139.72
2022-11-17T20:44:01.032Z,98147.31
2022-11-17T20:46:28.095Z,98137.94
2022-11-17T20:48:55.060Z,98148.03
2022-11-17T20:51:23.439Z,98146.38
2022-11-17T20:53:51.187Z,98147.09
2022-11-17T20:56:18.722Z,98138.13
2022-11-17T20:58:45.684Z,98144.75
2022-11-17T21:01:14.870Z,98145.75
2022-11-17T21:03:42.013Z,98147.53
2022-11-17T21:06:09.645Z,98139.69
2022-11-17T21:08:38.977Z,98143.03
2022-11-17T21:11:11.089Z,98155.16
2022-11-17T21:13:38.433Z,98155.28
2022-11-17T21:16:08.060Z,98152.81
2022-11-17T21:18:36.042Z,98155.38
